createdAt,value
2017-04-11T00:00:12.423Z,1.83
2017-04-11T00:01:12.171Z,2.17
2017-04-11T00:02:11.967Z,2.37
2017-04-11T00:03:12.503Z,1.80
2017-04-11T00:04:12.260Z,1.96
2017-04-11T00:05:12.059Z,1.91
2017-04-11T00:06:11.827Z,2.13
2017-04-11T00:07:11.599Z,1.96
2017-04-11T00:08:11.331Z,2.43
2017-04-11T00:09:11.179Z,1.93
2017-04-11T00:10:10.934Z,2.33
2017-04-11T00:11:10.735Z,2.30
2017-04-11T00:12:10.522Z,2.19
2017-04-11T00:13:11.038Z,2.16
2017-04-11T00:14:11.607Z,2.11
2017-04-11T00:15:12.176Z,2.09
2017-04-11T00:16:11.951Z,2.19
2017-04-11T00:17:11.723Z,1.94
2017-04-11T00:18:11.503Z,2.13
2017-04-11T00:19:11.527Z,2.26
2017-04-11T00:20:11.335Z,2.17
2017-04-11T00:21:11.134Z,1.90
2017-04-11T00:22:10.891Z,1.93
2017-04-11T00:23:10.691Z,2.23
2017-04-11T00:24:10.522Z,1.99
2017-04-11T00:25:10.327Z,1.80
2017-04-11T00:26:10.139Z,2.06
2017-04-11T00:27:09.914Z,2.33
2017-04-11T00:28:09.683Z,1.94
2017-04-11T00:29:09.451Z,2.14
2017-04-11T00:30:09.270Z,1.87
2017-04-11T00:31:09.053Z,2.10
2017-04-11T00:32:08.819Z,2.11
2017-04-11T00:33:08.610Z,1.93
2017-04-11T00:34:08.426Z,2.29
2017-04-11T00:35:08.267Z,2.17
2017-04-11T00:36:08.839Z,1.86
2017-04-11T00:37:08.715Z,2.06
2017-04-11T00:38:08.907Z,2.23
2017-04-11T00:39:08.666Z,2.20
2017-04-11T00:40:08.418Z,1.89
2017-04-11T00:41:08.253Z,2.09
2017-04-11T00:42:08.031Z,1.84
2017-04-11T00:43:07.830Z,2.07
2017-04-11T00:44:07.563Z,2.59
2017-04-11T00:45:07.323Z,1.79
2017-04-11T00:46:07.123Z,1.69
2017-04-11T00:47:06.930Z,1.59
2017-04-11T00:48:06.750Z,2.10
2017-04-11T00:49:06.515Z,1.89
2017-04-11T00:50:07.042Z,2.24
2017-04-11T00:51:06.798Z,2.46
2017-04-11T00:52:06.606Z,2.16
2017-04-11T00:53:06.386Z,1.76
2017-04-11T00:54:06.158Z,1.53
2017-04-11T00:55:05.951Z,1.99
2017-04-11T00:56:06.462Z,2.01
2017-04-11T00:57:06.959Z,1.63
2017-04-11T00:58:06.762Z,1.80
2017-04-11T00:59:06.538Z,2.11
2017-04-11T01:00:06.358Z,1.94
2017-04-11T01:01:06.134Z,1.94
2017-04-11T01:02:05.910Z,2.19
2017-04-11T01:03:05.662Z,1.61
2017-04-11T01:04:05.450Z,1.83
2017-04-11T01:05:05.986Z,1.63
2017-04-11T01:06:05.770Z,1.53
2017-04-11T01:07:05.543Z,1.87
2017-04-11T01:08:05.282Z,1.73
2017-04-11T01:09:05.162Z,2.07
2017-04-11T01:10:04.955Z,2.01
2017-04-11T01:11:04.758Z,1.83
2017-04-11T01:12:04.558Z,1.89
2017-04-11T01:13:04.363Z,1.49
2017-04-11T01:14:04.130Z,2.17
2017-04-11T01:15:03.950Z,1.86
2017-04-11T01:16:03.766Z,2.13
2017-04-11T01:17:04.302Z,1.91
2017-04-11T01:18:04.055Z,2.04
2017-04-11T01:19:03.831Z,1.94
2017-04-11T01:20:03.630Z,1.67
2017-04-11T01:21:03.446Z,2.06
2017-04-11T01:22:03.958Z,1.87
2017-04-11T01:23:03.730Z,1.94
2017-04-11T01:24:03.482Z,1.87
2017-04-11T01:25:03.278Z,1.56
2017-04-11T01:26:03.078Z,1.73
2017-04-11T01:27:02.862Z,1.80
2017-04-11T01:28:02.633Z,1.97
2017-04-11T01:29:02.423Z,1.69
2017-04-11T01:30:02.958Z,1.74
2017-04-11T01:31:02.714Z,1.96
2017-04-11T01:32:02.511Z,1.86
2017-04-11T01:33:02.302Z,1.60
2017-04-11T01:34:02.825Z,1.74
2017-04-11T01:35:02.598Z,2.16
2017-04-11T01:36:02.411Z,1.69
2017-04-11T01:37:02.162Z,2.00
2017-04-11T01:38:01.933Z,1.63
2017-04-11T01:39:01.710Z,1.43
2017-04-11T01:40:01.474Z,2.20
2017-04-11T01:41:01.222Z,1.69
2017-04-11T01:42:01.762Z,1.44
2017-04-11T01:43:01.550Z,1.87
2017-04-11T01:44:02.054Z,1.96
2017-04-11T01:45:01.813Z,1.97
2017-04-11T01:46:01.565Z,1.79
2017-04-11T01:47:02.102Z,1.97
2017-04-11T01:48:01.865Z,1.54
2017-04-11T01:49:01.645Z,1.34
2017-04-11T01:50:01.434Z,2.14
2017-04-11T01:51:01.206Z,1.60
2017-04-11T01:52:01.098Z,1.79
2017-04-11T01:53:00.865Z,1.57
2017-04-11T01:54:00.634Z,1.60
2017-04-11T01:55:00.413Z,1.77
2017-04-11T01:56:00.930Z,1.50
2017-04-11T01:57:00.705Z,1.94
2017-04-11T01:58:00.526Z,1.97
2017-04-11T01:59:01.045Z,2.04
2017-04-11T02:00:00.813Z,1.87
2017-04-11T02:01:00.553Z,1.61
2017-04-11T02:02:00.354Z,1.94
2017-04-11T02:03:00.114Z,1.64
2017-04-11T02:03:59.890Z,1.66
2017-04-11T02:04:59.665Z,1.59
2017-04-11T02:05:59.469Z,1.53
2017-04-11T02:06:59.234Z,1.59
2017-04-11T02:07:58.974Z,1.64
2017-04-11T02:08:58.838Z,1.49
2017-04-11T02:09:58.613Z,1.71
2017-04-11T02:10:58.357Z,1.76
2017-04-11T02:11:58.129Z,1.47
2017-04-11T02:12:57.897Z,1.63
2017-04-11T02:13:57.665Z,1.79
2017-04-11T02:14:58.181Z,1.53
2017-04-11T02:15:57.949Z,1.79
2017-04-11T02:16:57.769Z,1.70
2017-04-11T02:17:57.793Z,1.79
2017-04-11T02:18:57.573Z,1.33
2017-04-11T02:19:57.390Z,1.94
2017-04-11T02:20:57.137Z,1.86
2017-04-11T02:21:56.900Z,1.56
2017-04-11T02:22:56.665Z,1.73
2017-04-11T02:23:56.425Z,1.86
2017-04-11T02:24:56.181Z,1.61
2017-04-11T02:25:56.025Z,1.43
2017-04-11T02:26:56.474Z,1.79
2017-04-11T02:30:29.597Z,1.51
2017-04-11T02:32:35.500Z,1.54
2017-04-11T02:33:35.289Z,1.34
2017-04-11T02:34:35.069Z,1.53
2017-04-11T02:35:34.833Z,2.00
2017-04-11T02:36:34.650Z,1.64
2017-04-11T02:37:34.414Z,1.47
2017-04-11T02:38:34.202Z,1.77
2017-04-11T02:39:33.965Z,1.84
2017-04-11T02:40:40.445Z,1.87
2017-04-11T02:41:40.225Z,1.63
2017-04-11T02:42:39.993Z,1.39
2017-04-11T02:43:39.845Z,1.54
2017-04-11T02:44:39.609Z,1.63
2017-04-11T02:45:39.377Z,1.57
2017-04-11T02:46:39.125Z,1.90
2017-04-11T02:47:39.784Z,1.50
2017-04-11T02:48:39.534Z,1.77
2017-04-11T02:49:39.297Z,1.50
2017-04-11T02:50:39.077Z,1.31
2017-04-11T02:51:38.885Z,1.31
2017-04-11T02:52:38.657Z,1.86
2017-04-11T02:53:38.432Z,1.34
2017-04-11T02:54:38.197Z,1.53
2017-04-11T02:55:37.945Z,1.61
2017-04-11T02:56:37.713Z,1.53
2017-04-11T02:57:37.505Z,1.53
2017-04-11T02:58:37.301Z,1.67
2017-04-11T02:59:37.089Z,1.63
2017-04-11T03:00:36.921Z,1.70
2017-04-11T03:01:36.697Z,1.43
2017-04-11T03:02:36.462Z,1.71
2017-04-11T03:03:36.221Z,1.57
2017-04-11T03:04:35.989Z,1.66
2017-04-11T03:05:35.804Z,1.26
2017-04-11T03:06:36.301Z,1.47
2017-04-11T03:07:36.077Z,1.53
2017-04-11T03:08:36.561Z,1.63
2017-04-11T03:09:36.333Z,1.51
2017-04-11T03:10:36.324Z,1.34
2017-04-11T03:11:36.409Z,1.61
2017-04-11T03:12:36.045Z,1.66
2017-04-11T03:13:35.832Z,1.26
2017-04-11T03:14:36.352Z,1.79
2017-04-11T03:15:36.129Z,1.46
2017-04-11T03:16:35.901Z,1.30
2017-04-11T03:17:35.706Z,1.36
2017-04-11T03:18:35.473Z,2.11
2017-04-11T03:19:35.233Z,1.43
2017-04-11T03:20:34.993Z,1.34
2017-04-11T03:21:34.729Z,1.87
2017-04-11T03:22:34.528Z,1.63
2017-04-11T03:23:34.313Z,1.59
2017-04-11T03:24:34.076Z,1.27
2017-04-11T03:25:33.864Z,1.54
2017-04-11T03:26:34.221Z,1.70
2017-04-11T03:27:34.744Z,1.76
2017-04-11T03:28:34.525Z,1.61
2017-04-11T03:29:34.312Z,1.49
2017-04-11T03:30:34.072Z,1.73
2017-04-11T03:31:40.668Z,1.44
2017-04-11T03:32:46.752Z,1.30
2017-04-11T03:33:46.549Z,1.40
2017-04-11T03:34:46.380Z,1.90
2017-04-11T03:35:46.153Z,1.31
2017-04-11T03:36:45.941Z,1.21
2017-04-11T03:37:46.881Z,1.49
2017-04-11T03:38:46.900Z,1.36
2017-04-11T03:39:46.712Z,1.44
2017-04-11T03:40:46.472Z,1.56
2017-04-11T03:41:46.260Z,1.19
2017-04-11T03:42:46.045Z,1.44
2017-04-11T03:43:45.813Z,1.51
2017-04-11T03:44:45.663Z,1.40
2017-04-11T03:45:45.452Z,1.50
2017-04-11T03:46:45.981Z,1.60
2017-04-11T03:47:45.758Z,1.33
2017-04-11T03:48:45.561Z,1.41
2017-04-11T03:49:46.100Z,1.71
2017-04-11T03:50:45.892Z,1.49
2017-04-11T03:51:45.660Z,1.24
2017-04-11T03:52:45.420Z,1.57
2017-04-11T03:53:45.192Z,1.40
2017-04-11T03:54:45.696Z,1.33
2017-04-11T03:55:45.464Z,1.46
2017-04-11T03:56:45.248Z,1.13
2017-04-11T03:57:44.991Z,1.60
2017-04-11T03:58:44.768Z,1.59
2017-04-11T03:59:45.331Z,1.24
2017-04-11T04:00:45.092Z,1.27
2017-04-11T04:01:44.908Z,1.57
2017-04-11T04:02:44.676Z,1.67
2017-04-11T04:03:44.492Z,1.21
2017-04-11T04:04:44.360Z,1.37
2017-04-11T04:05:44.160Z,1.21
2017-04-11T04:06:43.944Z,1.56
2017-04-11T04:07:44.472Z,1.67
2017-04-11T04:08:45.061Z,1.16
2017-04-11T04:09:44.892Z,1.30
2017-04-11T04:10:44.635Z,1.27
2017-04-11T04:11:44.468Z,1.33
2017-04-11T04:12:44.227Z,1.36
2017-04-11T04:13:44.000Z,0.99
2017-04-11T04:14:43.820Z,1.21
2017-04-11T04:15:43.639Z,1.29
2017-04-11T04:16:46.684Z,1.79
2017-04-11T04:17:46.635Z,1.26
2017-04-11T04:18:46.383Z,1.67
2017-04-11T04:19:46.152Z,1.60
2017-04-11T04:20:45.947Z,1.34
2017-04-11T04:21:45.955Z,1.54
2017-04-11T04:22:46.456Z,1.69
2017-04-11T04:23:46.235Z,1.50
2017-04-11T04:24:46.007Z,1.34
2017-04-11T04:25:46.528Z,1.40
2017-04-11T04:26:46.535Z,1.59
2017-04-11T04:27:47.019Z,1.44
2017-04-11T04:28:46.815Z,1.67
2017-04-11T04:29:46.587Z,1.50
2017-04-11T04:30:46.363Z,1.34
2017-04-11T04:31:46.151Z,1.17
2017-04-11T04:32:45.928Z,1.30
2017-04-11T04:33:45.735Z,1.50
2017-04-11T04:34:45.683Z,1.30
2017-04-11T04:35:45.483Z,1.34
2017-04-11T04:36:45.264Z,1.01
2017-04-11T04:37:45.043Z,1.44
2017-04-11T04:38:45.451Z,1.61
2017-04-11T04:39:45.284Z,1.63
2017-04-11T04:40:45.047Z,1.57
2017-04-11T04:41:44.848Z,1.61
2017-04-11T04:42:44.603Z,1.33
2017-04-11T04:43:44.371Z,1.60
2017-04-11T04:44:44.171Z,1.91
2017-04-11T04:45:43.967Z,1.54
2017-04-11T04:46:43.731Z,1.19
2017-04-11T04:47:43.503Z,1.41
2017-04-11T04:48:43.271Z,1.24
2017-04-11T04:49:43.051Z,1.30
2017-04-11T04:50:43.068Z,1.39
2017-04-11T04:51:42.871Z,1.46
2017-04-11T04:52:42.644Z,1.54
2017-04-11T04:53:42.438Z,1.41
2017-04-11T04:54:42.195Z,1.41
2017-04-11T04:55:41.943Z,1.10
2017-04-11T04:56:41.719Z,1.37
2017-04-11T04:57:41.527Z,1.46
2017-04-11T04:58:41.288Z,1.34
2017-04-11T04:59:41.048Z,1.51
2017-04-11T05:00:40.823Z,1.24
2017-04-11T05:01:41.332Z,1.19
2017-04-11T05:02:41.115Z,1.44
2017-04-11T05:03:40.923Z,1.23
2017-04-11T05:04:40.696Z,1.41
2017-04-11T05:05:40.479Z,1.29
2017-04-11T05:06:40.264Z,1.44
2017-04-11T05:07:40.003Z,1.59
2017-04-11T05:08:39.996Z,1.40
2017-04-11T05:09:39.768Z,1.11
2017-04-11T05:10:39.547Z,1.37
2017-04-11T05:11:40.056Z,1.53
2017-04-11T05:12:39.827Z,1.24
2017-04-11T05:13:39.635Z,1.30
2017-04-11T05:14:39.416Z,1.34
2017-04-11T05:15:39.188Z,1.27
2017-04-11T05:16:38.952Z,1.31
2017-04-11T05:17:38.735Z,1.24
2017-04-11T05:18:38.535Z,1.13
2017-04-11T05:19:38.333Z,1.27
2017-04-11T05:20:38.124Z,1.07
2017-04-11T05:21:37.879Z,1.41
2017-04-11T05:22:38.388Z,1.30
2017-04-11T05:23:38.147Z,1.36
2017-04-11T05:24:37.955Z,1.49
2017-04-11T05:25:37.805Z,1.33
2017-04-11T05:26:37.575Z,1.17
2017-04-11T05:27:37.352Z,1.26
2017-04-11T05:28:37.115Z,1.30
2017-04-11T05:29:36.875Z,1.60
2017-04-11T05:30:36.680Z,1.31
2017-04-11T05:31:36.455Z,1.11
2017-04-11T05:32:36.231Z,1.37
2017-04-11T05:33:35.983Z,1.53
2017-04-11T05:34:36.488Z,1.33
2017-04-11T05:35:36.287Z,1.63
2017-04-11T05:36:36.075Z,1.27
2017-04-11T05:37:35.883Z,1.47
2017-04-11T05:38:35.623Z,1.39
2017-04-11T05:39:35.400Z,1.23
2017-04-11T05:40:35.179Z,1.59
2017-04-11T05:41:35.003Z,1.30
2017-04-11T05:42:34.791Z,1.24
2017-04-11T05:43:34.535Z,1.46
2017-04-11T05:44:34.315Z,1.34
2017-04-11T05:45:34.187Z,1.09
2017-04-11T05:46:33.979Z,1.34
2017-04-11T05:47:33.819Z,1.29
2017-04-11T05:48:33.607Z,1.51
2017-04-11T05:49:33.579Z,1.41
2017-04-11T05:50:33.359Z,1.21
2017-04-11T05:51:33.875Z,1.26
2017-04-11T05:52:34.463Z,1.20
2017-04-11T05:53:34.248Z,1.30
2017-04-11T05:54:34.025Z,1.50
2017-04-11T05:55:33.816Z,1.29
2017-04-11T05:56:33.580Z,1.19
2017-04-11T05:57:33.375Z,1.29
2017-04-11T05:58:33.223Z,1.10
2017-04-11T05:59:33.007Z,1.34
2017-04-11T06:00:32.798Z,1.17
2017-04-11T06:01:32.567Z,1.11
2017-04-11T06:02:32.387Z,1.04
2017-04-11T06:03:32.163Z,1.34
2017-04-11T06:04:31.943Z,1.07
2017-04-11T06:05:31.715Z,1.06
2017-04-11T06:06:32.236Z,1.23
2017-04-11T06:07:32.027Z,1.39
2017-04-11T06:08:32.103Z,1.23
2017-04-11T06:09:31.912Z,1.49
2017-04-11T06:10:31.830Z,1.29
2017-04-11T06:11:31.690Z,1.34
2017-04-11T06:12:31.499Z,1.39
2017-04-11T06:13:31.291Z,1.44
2017-04-11T06:14:31.047Z,1.34
2017-04-11T06:15:30.808Z,1.50
2017-04-11T06:16:30.591Z,1.10
2017-04-11T06:17:30.391Z,1.36
2017-04-11T06:18:30.187Z,1.41
2017-04-11T06:19:29.955Z,1.41
2017-04-11T06:20:30.483Z,1.30
2017-04-11T06:21:30.997Z,1.40
2017-04-11T06:22:30.796Z,1.24
2017-04-11T06:23:30.671Z,1.31
2017-04-11T06:24:30.430Z,1.20
2017-04-11T06:25:30.215Z,1.17
2017-04-11T06:26:30.010Z,1.13
2017-04-11T06:27:30.546Z,1.10
2017-04-11T06:28:30.307Z,1.47
2017-04-11T06:29:30.090Z,1.59
2017-04-11T06:30:29.862Z,1.49
2017-04-11T06:31:29.654Z,1.14
2017-04-11T06:32:29.434Z,0.93
2017-04-11T06:33:29.950Z,1.21
2017-04-11T06:34:30.479Z,1.23
2017-04-11T06:35:30.242Z,1.07
2017-04-11T06:36:30.015Z,1.09
2017-04-11T06:37:30.110Z,1.37
2017-04-11T06:38:29.979Z,1.41
2017-04-11T06:39:29.746Z,1.10
2017-04-11T06:40:29.551Z,1.21
2017-04-11T06:41:29.418Z,1.00
2017-04-11T06:42:29.290Z,1.11
2017-04-11T06:43:29.058Z,1.00
2017-04-11T06:44:28.926Z,1.46
2017-04-11T06:45:28.722Z,1.01
2017-04-11T06:46:28.490Z,1.13
2017-04-11T06:47:28.250Z,1.53
2017-04-11T06:48:28.006Z,1.23
2017-04-11T06:49:28.694Z,1.31
2017-04-11T06:50:28.458Z,1.10
2017-04-11T06:51:28.274Z,1.16
2017-04-11T06:52:28.054Z,1.39
2017-04-11T06:53:27.930Z,1.33
2017-04-11T06:54:27.766Z,1.20
2017-04-11T06:55:27.593Z,1.30
2017-04-11T06:56:28.182Z,1.29
2017-04-11T06:57:27.921Z,1.13
2017-04-11T06:58:27.710Z,1.34
2017-04-11T06:59:27.490Z,1.23
2017-04-11T07:00:27.231Z,1.06
2017-04-11T07:01:27.002Z,1.51
2017-04-11T07:02:26.806Z,0.90
2017-04-11T07:03:26.574Z,1.30
2017-04-11T07:04:26.350Z,1.57
2017-04-11T07:05:26.110Z,1.27
2017-04-11T07:06:25.878Z,1.19
2017-04-11T07:07:25.633Z,1.51
2017-04-11T07:08:25.498Z,1.47
2017-04-11T07:09:25.280Z,1.03
2017-04-11T07:10:25.036Z,1.01
2017-04-11T07:11:24.817Z,1.37
2017-04-11T07:12:24.581Z,1.24
2017-04-11T07:13:24.345Z,1.50
2017-04-11T07:14:24.137Z,1.11
2017-04-11T07:15:23.989Z,1.09
2017-04-11T07:16:23.737Z,1.20
2017-04-11T07:17:23.505Z,1.21
2017-04-11T07:18:23.285Z,1.06
2017-04-11T07:19:23.053Z,1.33
2017-04-11T07:20:22.825Z,1.26
2017-04-11T07:21:22.593Z,1.36
2017-04-11T07:22:22.345Z,1.24
2017-04-11T07:23:22.114Z,1.01
2017-04-11T07:24:21.953Z,1.49
2017-04-11T07:25:21.729Z,1.20
2017-04-11T07:26:21.554Z,1.29
2017-04-11T07:27:21.326Z,1.04
2017-04-11T07:28:21.097Z,1.19
2017-04-11T07:29:20.857Z,1.31
2017-04-11T07:30:20.613Z,1.34
2017-04-11T07:31:20.437Z,1.06
2017-04-11T07:32:20.242Z,1.01
2017-04-11T07:33:19.956Z,1.19
2017-04-11T07:34:19.708Z,1.03
2017-04-11T07:35:19.513Z,1.04
2017-04-11T07:36:19.305Z,1.29
2017-04-11T07:37:19.873Z,1.20
2017-04-11T07:38:19.949Z,1.17
2017-04-11T07:39:19.757Z,1.04
2017-04-11T07:40:19.529Z,1.06
2017-04-11T07:41:19.277Z,1.09
2017-04-11T07:42:19.081Z,1.14
2017-04-11T07:43:18.861Z,1.09
2017-04-11T07:44:18.633Z,0.99
2017-04-11T07:45:19.152Z,0.91
2017-04-11T07:46:18.972Z,1.19
2017-04-11T07:47:18.757Z,1.01
2017-04-11T07:48:19.269Z,1.01
2017-04-11T07:49:19.050Z,1.11
2017-04-11T07:50:18.825Z,1.16
2017-04-11T07:51:18.576Z,1.10
2017-04-11T07:52:18.333Z,1.16
2017-04-11T07:53:18.113Z,1.16
2017-04-11T07:54:17.880Z,1.09
2017-04-11T07:55:17.685Z,0.86
2017-04-11T07:56:17.460Z,1.29
2017-04-11T07:57:17.265Z,1.13
2017-04-11T07:58:17.060Z,1.03
2017-04-11T07:59:16.832Z,0.94
2017-04-11T08:00:16.593Z,1.21
2017-04-11T08:01:17.100Z,1.07
2017-04-11T08:02:16.872Z,1.00
2017-04-11T08:03:16.637Z,0.97
2017-04-11T08:04:16.404Z,1.23
2017-04-11T08:05:16.921Z,1.07
2017-04-11T08:06:16.693Z,0.97
2017-04-11T08:07:16.476Z,0.93
2017-04-11T08:08:16.292Z,0.90
2017-04-11T08:09:16.076Z,1.14
2017-04-11T08:10:16.133Z,0.90
2017-04-11T08:11:15.908Z,0.90
2017-04-11T08:12:16.424Z,1.16
2017-04-11T08:13:16.908Z,0.89
2017-04-11T08:14:16.689Z,1.03
2017-04-11T08:15:16.465Z,1.13
2017-04-11T08:16:16.268Z,1.16
2017-04-11T08:17:16.040Z,1.06
2017-04-11T08:18:15.860Z,1.17
2017-04-11T08:19:15.628Z,0.73
2017-04-11T08:20:15.420Z,0.90
2017-04-11T08:21:15.252Z,0.83
2017-04-11T08:22:15.020Z,0.83
2017-04-11T08:23:14.760Z,1.19
2017-04-11T08:24:14.540Z,0.94
2017-04-11T08:25:14.316Z,1.23
2017-04-11T08:26:14.053Z,0.93
2017-04-11T08:27:13.852Z,1.06
2017-04-11T08:28:13.704Z,1.07
2017-04-11T08:29:13.549Z,1.43
2017-04-11T08:30:13.349Z,0.73
2017-04-11T08:31:13.120Z,1.00
2017-04-11T08:32:12.909Z,0.97
2017-04-11T08:33:12.712Z,1.14
2017-04-11T08:34:13.265Z,0.77
2017-04-11T08:35:13.008Z,1.00
2017-04-11T08:36:12.777Z,1.10
2017-04-11T08:37:12.545Z,1.01
2017-04-11T08:38:12.360Z,1.04
2017-04-11T08:39:12.194Z,1.11
2017-04-11T08:40:11.901Z,1.10
2017-04-11T08:41:11.940Z,0.96
2017-04-11T08:42:12.468Z,0.94
2017-04-11T08:43:12.252Z,1.09
2017-04-11T08:44:12.098Z,1.31
2017-04-11T08:45:11.916Z,1.11
2017-04-11T08:46:11.688Z,0.94
2017-04-11T08:47:11.468Z,1.03
2017-04-11T08:48:11.991Z,0.94
2017-04-11T08:49:11.764Z,1.10
2017-04-11T08:50:11.531Z,1.06
2017-04-11T08:51:11.332Z,0.97
2017-04-11T08:52:11.115Z,0.96
2017-04-11T08:53:10.915Z,1.04
2017-04-11T08:54:10.760Z,1.01
2017-04-11T08:55:10.524Z,0.86
2017-04-11T08:56:10.280Z,0.90
2017-04-11T08:57:10.056Z,1.09
2017-04-11T08:58:09.820Z,0.89
2017-04-11T08:59:09.575Z,1.10
2017-04-11T09:00:09.442Z,0.97
2017-04-11T09:01:09.187Z,1.20
2017-04-11T09:02:08.975Z,1.01
2017-04-11T09:03:08.760Z,1.07
2017-04-11T09:04:08.552Z,1.03
2017-04-11T09:05:08.322Z,1.00
2017-04-11T09:06:08.100Z,0.91
2017-04-11T09:07:07.876Z,0.80
2017-04-11T09:08:07.640Z,0.91
2017-04-11T09:09:07.475Z,1.09
2017-04-11T09:10:08.004Z,1.04
2017-04-11T09:11:07.808Z,1.03
2017-04-11T09:12:07.575Z,0.80
2017-04-11T09:13:07.352Z,0.93
2017-04-11T09:14:07.180Z,0.90
2017-04-11T09:15:07.027Z,0.96
2017-04-11T09:16:06.820Z,1.13
2017-04-11T09:17:06.636Z,0.94
2017-04-11T09:18:06.647Z,1.09
2017-04-11T09:19:06.419Z,0.93
2017-04-11T09:20:06.211Z,1.09
2017-04-11T09:21:06.003Z,0.89
2017-04-11T09:22:05.796Z,1.07
2017-04-11T09:23:05.556Z,0.90
2017-04-11T09:24:05.335Z,1.01
2017-04-11T09:25:05.123Z,1.10
2017-04-11T09:26:04.903Z,0.93
2017-04-11T09:27:04.735Z,1.03
2017-04-11T09:28:04.523Z,0.81
2017-04-11T09:29:04.328Z,1.00
2017-04-11T09:30:04.072Z,1.03
2017-04-11T09:31:04.568Z,1.04
2017-04-11T09:32:04.332Z,0.99
2017-04-11T09:33:04.108Z,1.01
2017-04-11T09:34:03.892Z,0.91
2017-04-11T09:35:04.403Z,0.94
2017-04-11T09:36:04.188Z,0.84
2017-04-11T09:37:03.960Z,1.09
2017-04-11T09:38:03.796Z,1.00
2017-04-11T09:39:03.616Z,0.83
2017-04-11T09:40:04.143Z,1.10
2017-04-11T09:41:03.899Z,0.90
2017-04-11T09:43:09.753Z,0.84
2017-04-11T09:44:09.988Z,0.89
2017-04-11T09:45:09.763Z,1.03
2017-04-11T09:46:09.539Z,1.07
2017-04-11T09:47:09.311Z,0.77
2017-04-11T09:48:09.076Z,1.03
2017-04-11T09:49:08.835Z,0.99
2017-04-11T09:50:08.607Z,0.80
2017-04-11T09:51:09.103Z,0.99
2017-04-11T09:52:08.867Z,1.34
2017-04-11T09:53:08.735Z,1.10
2017-04-11T09:54:09.252Z,0.90
2017-04-11T09:55:09.012Z,0.80
2017-04-11T09:56:08.767Z,0.90
2017-04-11T09:57:08.599Z,1.14
2017-04-11T09:58:08.343Z,0.79
2017-04-11T09:59:08.108Z,1.00
2017-04-11T10:00:07.916Z,0.87
2017-04-11T10:01:07.676Z,0.79
2017-04-11T10:02:07.439Z,0.91
2017-04-11T10:03:07.239Z,0.96
2017-04-11T10:04:07.011Z,0.83
2017-04-11T10:05:06.819Z,0.99
2017-04-11T10:06:06.655Z,0.86
2017-04-11T10:07:06.435Z,0.86
2017-04-11T10:08:06.216Z,0.81
2017-04-11T10:09:06.143Z,0.86
2017-04-11T10:10:05.955Z,0.96
2017-04-11T10:11:05.775Z,0.96
2017-04-11T10:12:05.559Z,0.80
2017-04-11T10:13:05.355Z,0.90
2017-04-11T10:14:05.447Z,0.80
2017-04-11T10:15:05.299Z,0.81
2017-04-11T10:16:05.134Z,0.79
2017-04-11T10:17:04.939Z,0.97
2017-04-11T10:18:04.735Z,1.01
2017-04-11T10:19:04.519Z,0.84
2017-04-11T10:20:04.295Z,0.84
2017-04-11T10:21:04.112Z,0.89
2017-04-11T10:22:03.951Z,0.97
2017-04-11T10:23:03.755Z,0.60
2017-04-11T10:24:03.571Z,1.30
2017-04-11T10:25:03.335Z,0.80
2017-04-11T10:26:03.146Z,0.89
2017-04-11T10:27:02.979Z,0.79
2017-04-11T10:28:02.792Z,0.83
2017-04-11T10:29:02.587Z,0.77
2017-04-11T10:30:02.375Z,0.93
2017-04-11T10:31:02.159Z,0.77
2017-04-11T10:32:01.935Z,0.74
2017-04-11T10:33:01.751Z,0.80
2017-04-11T10:34:01.591Z,0.87
2017-04-11T10:35:01.379Z,0.77
2017-04-11T10:36:01.171Z,0.77
2017-04-11T10:37:01.059Z,0.83
2017-04-11T10:38:00.860Z,0.77
2017-04-11T10:39:00.677Z,0.69
2017-04-11T10:40:00.431Z,0.60
2017-04-11T10:41:00.611Z,0.83
2017-04-11T10:42:00.383Z,0.60
2017-04-11T10:43:00.170Z,0.90
2017-04-11T10:44:00.051Z,0.80
2017-04-11T10:45:00.566Z,0.89
2017-04-11T10:46:00.355Z,0.73
2017-04-11T10:47:00.127Z,0.66
2017-04-11T10:47:59.919Z,0.83
2017-04-11T10:48:59.740Z,0.73
2017-04-11T10:49:59.579Z,1.03
2017-04-11T10:50:59.366Z,0.80
2017-04-11T10:51:59.875Z,0.80
2017-04-11T10:52:59.658Z,0.77
2017-04-11T10:53:59.443Z,0.73
2017-04-11T10:54:59.203Z,0.74
2017-04-11T10:55:58.959Z,0.81
2017-04-11T10:56:58.742Z,0.84
2017-04-11T10:57:58.542Z,0.81
2017-04-11T10:58:58.346Z,0.90
2017-04-11T10:59:58.179Z,0.70
2017-04-11T11:00:57.979Z,0.64
2017-04-11T11:01:57.766Z,0.90
2017-04-11T11:02:57.606Z,0.86
2017-04-11T11:03:58.179Z,0.76
2017-04-11T11:04:58.007Z,0.61
2017-04-11T11:05:57.926Z,0.84
2017-04-11T11:06:58.454Z,0.96
2017-04-11T11:07:58.266Z,0.79
2017-04-11T11:08:58.082Z,0.80
2017-04-11T11:11:03.966Z,0.74
2017-04-11T11:12:03.730Z,0.90
2017-04-11T11:13:03.526Z,0.79
2017-04-11T11:14:03.359Z,0.77
2017-04-11T11:15:03.558Z,0.76
2017-04-11T11:16:03.371Z,0.70
2017-04-11T11:17:03.215Z,0.70
2017-04-11T11:18:02.995Z,0.89
2017-04-11T11:19:02.834Z,0.70
2017-04-11T11:20:03.379Z,0.90
2017-04-11T11:21:03.226Z,0.70
2017-04-11T11:22:03.006Z,0.79
2017-04-11T11:23:02.827Z,0.83
2017-04-11T11:24:02.619Z,0.97
2017-04-11T11:25:02.434Z,0.86
2017-04-11T11:26:02.276Z,0.80
2017-04-11T11:27:02.098Z,0.80
2017-04-11T11:28:01.910Z,0.83
2017-04-11T11:29:02.438Z,1.11
2017-04-11T11:30:02.230Z,0.83
2017-04-11T11:31:02.003Z,0.80
2017-04-11T11:32:01.803Z,1.16
2017-04-11T11:33:01.594Z,0.87
2017-04-11T11:34:02.659Z,1.00
2017-04-11T11:35:02.427Z,0.91
2017-04-11T11:36:02.198Z,0.66
2017-04-11T11:37:01.990Z,0.96
2017-04-11T11:38:01.774Z,0.71
2017-04-11T11:39:01.806Z,0.83
2017-04-11T11:40:01.562Z,1.26
2017-04-11T11:41:01.374Z,0.86
2017-04-11T11:42:01.182Z,0.87
2017-04-11T11:43:00.994Z,0.81
2017-04-11T11:44:00.934Z,0.79
2017-04-11T11:45:00.742Z,0.79
2017-04-11T11:46:01.310Z,0.76
2017-04-11T11:47:01.134Z,0.90
2017-04-11T11:48:02.175Z,0.81
2017-04-11T11:49:01.978Z,0.99
2017-04-11T11:50:01.767Z,0.99
2017-04-11T11:51:01.579Z,0.63
2017-04-11T11:52:01.403Z,0.79
2017-04-11T11:53:01.950Z,0.94
2017-04-11T11:54:01.778Z,1.00
2017-04-11T11:55:01.574Z,0.84
2017-04-11T11:56:01.381Z,0.67
2017-04-11T11:57:01.650Z,0.90
2017-04-11T11:58:01.454Z,0.63
2017-04-11T11:59:01.967Z,1.09
2017-04-11T12:00:02.490Z,0.80
2017-04-11T12:01:03.058Z,0.89
2017-04-11T12:02:02.822Z,0.67
2017-04-11T12:03:02.627Z,0.79
2017-04-11T12:04:02.403Z,0.91
2017-04-11T12:05:02.214Z,0.84
2017-04-11T12:06:02.805Z,0.79
2017-04-11T12:07:02.594Z,0.90
2017-04-11T12:08:02.442Z,0.70
2017-04-11T12:09:02.219Z,0.79
2017-04-11T12:10:02.453Z,0.71
2017-04-11T12:11:02.282Z,0.91
2017-04-11T12:12:02.102Z,0.77
2017-04-11T12:13:01.942Z,0.87
2017-04-11T12:14:02.182Z,0.77
2017-04-11T12:15:01.946Z,0.90
2017-04-11T12:16:01.743Z,0.87
2017-04-11T12:17:01.515Z,0.83
2017-04-11T12:18:01.301Z,0.91
2017-04-11T12:19:01.081Z,0.99
2017-04-11T12:20:00.838Z,1.03
2017-04-11T12:21:00.610Z,0.80
2017-04-11T12:22:00.414Z,0.76
2017-04-11T12:23:00.221Z,0.63
2017-04-11T12:24:00.035Z,0.70
2017-04-11T12:24:59.822Z,0.79
2017-04-11T12:25:59.657Z,0.94
2017-04-11T12:26:59.449Z,0.67
2017-04-11T12:27:59.258Z,0.81
2017-04-11T12:28:59.037Z,0.67
2017-04-11T12:29:58.862Z,0.69
2017-04-11T12:30:59.017Z,0.94
2017-04-11T12:31:59.061Z,0.73
2017-04-11T12:32:58.801Z,0.76
2017-04-11T12:33:58.605Z,0.71
2017-04-11T12:34:59.009Z,0.81
2017-04-11T12:35:58.785Z,0.80
2017-04-11T12:36:58.616Z,0.60
2017-04-11T12:37:58.442Z,0.79
2017-04-11T12:38:58.231Z,0.70
2017-04-11T12:39:58.970Z,0.76
2017-04-11T12:40:58.854Z,0.79
2017-04-11T12:41:58.746Z,0.70
2017-04-11T12:42:58.593Z,0.50
2017-04-11T12:43:58.397Z,0.81
2017-04-11T12:44:58.273Z,0.60
2017-04-11T12:45:58.197Z,0.79
2017-04-11T12:46:58.081Z,0.57
2017-04-11T12:47:58.685Z,0.74
2017-04-11T12:48:58.501Z,0.59
2017-04-11T12:49:59.048Z,0.67
2017-04-11T12:50:58.957Z,0.74
2017-04-11T12:51:58.737Z,0.67
2017-04-11T12:52:58.542Z,0.60
2017-04-11T12:53:58.318Z,0.80
2017-04-11T12:54:58.130Z,0.77
2017-04-11T12:55:57.945Z,0.71
2017-04-11T12:56:57.713Z,0.67
2017-04-11T12:57:58.301Z,0.77
2017-04-11T12:58:58.121Z,0.76
2017-04-11T12:59:57.901Z,0.61
2017-04-11T13:00:57.729Z,0.66
2017-04-11T13:01:57.541Z,0.77
2017-04-11T13:02:57.338Z,0.89
2017-04-11T13:03:57.181Z,0.73
2017-04-11T13:04:57.280Z,0.71
2017-04-11T13:05:57.841Z,0.79
2017-04-11T13:06:57.673Z,0.69
2017-04-11T13:07:57.425Z,0.84
2017-04-11T13:08:57.205Z,0.76
2017-04-11T13:09:56.997Z,0.74
2017-04-11T13:10:56.777Z,0.74
2017-04-11T13:11:56.585Z,0.76
2017-04-11T13:12:56.377Z,0.89
2017-04-11T13:13:56.261Z,0.66
2017-04-11T13:14:56.829Z,0.74
2017-04-11T13:15:56.640Z,0.61
2017-04-11T13:16:56.421Z,0.76
2017-04-11T13:17:56.225Z,0.67
2017-04-11T13:18:55.977Z,0.69
2017-04-11T13:19:56.817Z,0.76
2017-04-11T13:20:56.613Z,0.67
2017-04-11T13:21:56.409Z,0.96
2017-04-11T13:22:56.425Z,0.61